Hlavní strana
METAR-TAF:

METAR-TAF

Letiště :

Osijek, Chorvatsko

zeměpisná šířka: 45-27N, zeměpisná délka: 018-48E, výška: 88 m

Aktuální stav počasí

Zpráva byla vytvořena před 30 minutami, v 20:30 UTC
Severoseverovýchodní vítr 4 kt
Teplota 23°C
Vlhkost vzduchu 65%
Tlak 1016 hPa
Viditelnost 10 km a více
Žádná oblačnost pod 1500 m, nevyskytují se cumulonimby.

METAR: LDOS 192030Z 03004KT CAVOK 23/16 Q1016

Čas: 23:00 (21:00 UTC)

Předpověď počasí

Zpráva byla vytvořena před 3 hodinami a 35 minutami, v 17:25 UTC
Předpověď platná od 19 v 18 UTC do 20 v 18 UTC
Východoseverovýchodní vítr 6 kt
Viditelnost 10 km a více
Žádná oblačnost pod 1500 m, nevyskytují se cumulonimby.

TAF: LDOS 191725Z 1918/2018 07006KT CAVOK TX33/2014Z TN17/2004Z

Stav a předpovědi počasí z více než 4 000 letišť (zprávy METAR a TAF).

Červené a žluté tečky na mapě představují dostupné meteorologické stanice.

Když kurzor umístíte na tečku, zobrazí se název stanice.

Pak kliknutím zobrazíte stav a předpověď počasí.

Chcete-li změnit mapu, kliknutím na zelené tlačítko se znaménkem +mapu přiblížíte, kliknutím na zelené tlačítko se znaménkem – mapu oddálíte a kliknutím na zelené šipky přejdete na sousední mapy.


METAR-TAF: